sensor_id;sensor_type;location;lat;lon;timestamp;temperature;humidity
27492;DHT22;14927;51.210;6.838;2023-08-07T00:02:32;17.90;68.80
27492;DHT22;14927;51.210;6.838;2023-08-07T00:05:17;17.90;68.90
27492;DHT22;14927;51.210;6.838;2023-08-07T00:08:01;17.90;69.10
27492;DHT22;14927;51.210;6.838;2023-08-07T00:10:46;17.80;69.20
27492;DHT22;14927;51.210;6.838;2023-08-07T00:13:31;17.80;69.30
27492;DHT22;14927;51.210;6.838;2023-08-07T00:16:16;17.80;69.20
27492;DHT22;14927;51.210;6.838;2023-08-07T00:19:02;17.80;69.20
27492;DHT22;14927;51.210;6.838;2023-08-07T00:21:47;17.80;69.20
27492;DHT22;14927;51.210;6.838;2023-08-07T00:24:31;17.80;69.30
27492;DHT22;14927;51.210;6.838;2023-08-07T00:27:16;17.70;69.30
27492;DHT22;14927;51.210;6.838;2023-08-07T00:30:01;17.70;69.50
27492;DHT22;14927;51.210;6.838;2023-08-07T00:32:46;17.70;69.60
27492;DHT22;14927;51.210;6.838;2023-08-07T00:35:30;17.70;69.50
27492;DHT22;14927;51.210;6.838;2023-08-07T00:38:15;17.70;69.50
27492;DHT22;14927;51.210;6.838;2023-08-07T00:41:00;17.70;69.60
27492;DHT22;14927;51.210;6.838;2023-08-07T00:43:44;17.70;69.70
27492;DHT22;14927;51.210;6.838;2023-08-07T00:46:29;17.70;69.50
27492;DHT22;14927;51.210;6.838;2023-08-07T00:49:14;17.70;69.70
27492;DHT22;14927;51.210;6.838;2023-08-07T00:51:59;17.90;69.80
27492;DHT22;14927;51.210;6.838;2023-08-07T00:54:43;17.70;69.80
27492;DHT22;14927;51.210;6.838;2023-08-07T00:57:29;17.70;69.80
27492;DHT22;14927;51.210;6.838;2023-08-07T01:00:15;17.70;69.70
27492;DHT22;14927;51.210;6.838;2023-08-07T01:03:01;17.80;69.70
27492;DHT22;14927;51.210;6.838;2023-08-07T01:05:48;17.70;69.70
27492;DHT22;14927;51.210;6.838;2023-08-07T01:08:33;17.70;69.60
27492;DHT22;14927;51.210;6.838;2023-08-07T01:11:29;17.70;70.30
27492;DHT22;14927;51.210;6.838;2023-08-07T01:18:13;17.70;69.70
27492;DHT22;14927;51.210;6.838;2023-08-07T01:20:58;17.70;69.50
27492;DHT22;14927;51.210;6.838;2023-08-07T01:23:43;17.70;69.70
27492;DHT22;14927;51.210;6.838;2023-08-07T01:26:28;17.70;69.70
27492;DHT22;14927;51.210;6.838;2023-08-07T01:29:30;17.70;69.70
27492;DHT22;14927;51.210;6.838;2023-08-07T01:32:59;17.70;69.80
27492;DHT22;14927;51.210;6.838;2023-08-07T01:35:53;17.70;70.00
27492;DHT22;14927;51.210;6.838;2023-08-07T01:38:39;17.70;69.50
27492;DHT22;14927;51.210;6.838;2023-08-07T01:41:24;17.70;70.20
27492;DHT22;14927;51.210;6.838;2023-08-07T01:44:09;17.70;69.40
27492;DHT22;14927;51.210;6.838;2023-08-07T01:46:54;17.70;69.40
27492;DHT22;14927;51.210;6.838;2023-08-07T01:49:39;17.70;70.10
27492;DHT22;14927;51.210;6.838;2023-08-07T01:52:25;17.70;69.40
27492;DHT22;14927;51.210;6.838;2023-08-07T01:55:10;17.70;69.40
27492;DHT22;14927;51.210;6.838;2023-08-07T01:57:54;17.70;69.50
27492;DHT22;14927;51.210;6.838;2023-08-07T02:00:39;17.60;69.70
27492;DHT22;14927;51.210;6.838;2023-08-07T02:03:24;17.60;70.60
27492;DHT22;14927;51.210;6.838;2023-08-07T02:06:08;17.60;70.10
27492;DHT22;14927;51.210;6.838;2023-08-07T02:08:53;17.60;70.30
27492;DHT22;14927;51.210;6.838;2023-08-07T02:11:38;17.60;71.40
27492;DHT22;14927;51.210;6.838;2023-08-07T02:14:23;17.60;70.80
27492;DHT22;14927;51.210;6.838;2023-08-07T02:17:07;17.60;70.90
27492;DHT22;14927;51.210;6.838;2023-08-07T02:19:52;17.50;71.10
27492;DHT22;14927;51.210;6.838;2023-08-07T02:22:37;17.50;71.10
27492;DHT22;14927;51.210;6.838;2023-08-07T02:25:22;17.50;71.20
27492;DHT22;14927;51.210;6.838;2023-08-07T02:28:06;17.50;71.50
27492;DHT22;14927;51.210;6.838;2023-08-07T02:30:51;17.50;71.40
27492;DHT22;14927;51.210;6.838;2023-08-07T02:33:37;17.50;71.40
27492;DHT22;14927;51.210;6.838;2023-08-07T02:36:22;17.40;71.40
27492;DHT22;14927;51.210;6.838;2023-08-07T02:39:07;17.40;71.60
27492;DHT22;14927;51.210;6.838;2023-08-07T02:41:51;17.40;71.60
27492;DHT22;14927;51.210;6.838;2023-08-07T02:44:36;17.40;71.80
27492;DHT22;14927;51.210;6.838;2023-08-07T02:47:21;17.30;72.00
27492;DHT22;14927;51.210;6.838;2023-08-07T02:50:06;17.30;72.30
27492;DHT22;14927;51.210;6.838;2023-08-07T02:52:51;17.30;72.30
27492;DHT22;14927;51.210;6.838;2023-08-07T02:55:35;17.30;72.20
27492;DHT22;14927;51.210;6.838;2023-08-07T02:58:20;17.30;72.40
27492;DHT22;14927;51.210;6.838;2023-08-07T03:01:05;17.30;72.50
27492;DHT22;14927;51.210;6.838;2023-08-07T03:03:53;17.20;72.40
27492;DHT22;14927;51.210;6.838;2023-08-07T03:06:37;17.20;72.40
27492;DHT22;14927;51.210;6.838;2023-08-07T03:09:22;17.20;72.50
27492;DHT22;14927;51.210;6.838;2023-08-07T03:12:07;17.20;72.70
27492;DHT22;14927;51.210;6.838;2023-08-07T03:14:51;17.20;72.70
27492;DHT22;14927;51.210;6.838;2023-08-07T03:17:36;17.20;72.80
27492;DHT22;14927;51.210;6.838;2023-08-07T03:20:21;17.20;72.70
27492;DHT22;14927;51.210;6.838;2023-08-07T03:23:05;17.20;72.70
27492;DHT22;14927;51.210;6.838;2023-08-07T03:25:50;17.20;72.80
27492;DHT22;14927;51.210;6.838;2023-08-07T03:28:35;17.10;72.70
27492;DHT22;14927;51.210;6.838;2023-08-07T03:31:20;17.20;72.80
27492;DHT22;14927;51.210;6.838;2023-08-07T03:34:05;17.10;72.90
27492;DHT22;14927;51.210;6.838;2023-08-07T03:36:49;17.20;72.60
27492;DHT22;14927;51.210;6.838;2023-08-07T03:39:34;17.20;72.70
27492;DHT22;14927;51.210;6.838;2023-08-07T03:42:19;17.20;72.60
27492;DHT22;14927;51.210;6.838;2023-08-07T03:45:03;17.20;72.60
27492;DHT22;14927;51.210;6.838;2023-08-07T03:47:49;17.20;72.30
27492;DHT22;14927;51.210;6.838;2023-08-07T03:50:33;17.10;72.40
27492;DHT22;14927;51.210;6.838;2023-08-07T03:53:20;17.10;72.40
27492;DHT22;14927;51.210;6.838;2023-08-07T03:56:05;17.10;72.40
27492;DHT22;14927;51.210;6.838;2023-08-07T03:58:49;17.10;72.30
27492;DHT22;14927;51.210;6.838;2023-08-07T04:01:34;17.20;72.30
27492;DHT22;14927;51.210;6.838;2023-08-07T04:04:19;17.10;72.30
27492;DHT22;14927;51.210;6.838;2023-08-07T04:07:03;17.10;72.40
27492;DHT22;14927;51.210;6.838;2023-08-07T04:09:48;17.10;72.40
27492;DHT22;14927;51.210;6.838;2023-08-07T04:12:33;17.20;72.40
27492;DHT22;14927;51.210;6.838;2023-08-07T04:15:17;17.20;72.40
27492;DHT22;14927;51.210;6.838;2023-08-07T04:18:02;17.20;72.40
27492;DHT22;14927;51.210;6.838;2023-08-07T04:20:53;17.20;72.30
27492;DHT22;14927;51.210;6.838;2023-08-07T04:23:39;17.20;72.20
27492;DHT22;14927;51.210;6.838;2023-08-07T04:26:23;17.20;72.10
27492;DHT22;14927;51.210;6.838;2023-08-07T04:29:08;17.20;72.90
27492;DHT22;14927;51.210;6.838;2023-08-07T04:31:53;17.20;72.10
27492;DHT22;14927;51.210;6.838;2023-08-07T04:34:37;17.20;72.00
27492;DHT22;14927;51.210;6.838;2023-08-07T04:37:22;17.20;71.90
27492;DHT22;14927;51.210;6.838;2023-08-07T04:40:07;17.20;71.90
27492;DHT22;14927;51.210;6.838;2023-08-07T04:42:52;17.20;71.70
27492;DHT22;14927;51.210;6.838;2023-08-07T04:45:37;17.20;71.80
27492;DHT22;14927;51.210;6.838;2023-08-07T04:48:23;17.20;71.70
27492;DHT22;14927;51.210;6.838;2023-08-07T04:51:09;17.20;71.60
27492;DHT22;14927;51.210;6.838;2023-08-07T04:53:54;17.20;71.60
27492;DHT22;14927;51.210;6.838;2023-08-07T04:56:40;17.20;71.60
27492;DHT22;14927;51.210;6.838;2023-08-07T04:59:28;17.20;71.60
27492;DHT22;14927;51.210;6.838;2023-08-07T05:02:14;17.20;71.70
27492;DHT22;14927;51.210;6.838;2023-08-07T05:04:58;17.20;71.80
27492;DHT22;14927;51.210;6.838;2023-08-07T05:07:43;17.20;71.80
27492;DHT22;14927;51.210;6.838;2023-08-07T05:10:28;17.20;71.70
27492;DHT22;14927;51.210;6.838;2023-08-07T05:13:12;17.20;71.50
27492;DHT22;14927;51.210;6.838;2023-08-07T05:15:57;17.20;71.40
27492;DHT22;14927;51.210;6.838;2023-08-07T05:18:42;17.20;71.40
27492;DHT22;14927;51.210;6.838;2023-08-07T05:21:26;17.20;71.50
27492;DHT22;14927;51.210;6.838;2023-08-07T05:24:11;17.30;71.70
27492;DHT22;14927;51.210;6.838;2023-08-07T05:26:56;17.20;71.80
27492;DHT22;14927;51.210;6.838;2023-08-07T05:29:41;17.30;71.90
27492;DHT22;14927;51.210;6.838;2023-08-07T05:32:29;17.30;72.00
27492;DHT22;14927;51.210;6.838;2023-08-07T05:35:13;17.30;72.00
27492;DHT22;14927;51.210;6.838;2023-08-07T05:37:58;17.30;71.90
27492;DHT22;14927;51.210;6.838;2023-08-07T05:40:43;17.30;72.00
27492;DHT22;14927;51.210;6.838;2023-08-07T05:43:27;17.30;72.10
27492;DHT22;14927;51.210;6.838;2023-08-07T05:46:12;17.30;72.30
27492;DHT22;14927;51.210;6.838;2023-08-07T05:48:56;17.30;72.40
27492;DHT22;14927;51.210;6.838;2023-08-07T05:51:41;17.30;72.50
27492;DHT22;14927;51.210;6.838;2023-08-07T05:54:26;17.30;72.70
27492;DHT22;14927;51.210;6.838;2023-08-07T05:57:10;17.30;72.50
27492;DHT22;14927;51.210;6.838;2023-08-07T05:59:55;17.30;72.30
27492;DHT22;14927;51.210;6.838;2023-08-07T06:02:40;17.30;72.40
27492;DHT22;14927;51.210;6.838;2023-08-07T06:05:24;17.30;72.50
27492;DHT22;14927;51.210;6.838;2023-08-07T06:08:09;17.30;72.70
27492;DHT22;14927;51.210;6.838;2023-08-07T06:10:53;17.30;72.80
27492;DHT22;14927;51.210;6.838;2023-08-07T06:13:39;17.30;73.50
27492;DHT22;14927;51.210;6.838;2023-08-07T06:16:26;17.30;72.80
27492;DHT22;14927;51.210;6.838;2023-08-07T06:19:11;17.30;72.90
27492;DHT22;14927;51.210;6.838;2023-08-07T06:21:56;17.30;73.10
27492;DHT22;14927;51.210;6.838;2023-08-07T06:24:40;17.30;73.10
27492;DHT22;14927;51.210;6.838;2023-08-07T06:27:25;17.30;73.00
27492;DHT22;14927;51.210;6.838;2023-08-07T06:30:10;17.30;72.80
27492;DHT22;14927;51.210;6.838;2023-08-07T06:32:55;17.30;72.80
27492;DHT22;14927;51.210;6.838;2023-08-07T06:35:39;17.30;73.00
27492;DHT22;14927;51.210;6.838;2023-08-07T06:38:26;17.30;73.10
27492;DHT22;14927;51.210;6.838;2023-08-07T06:41:11;17.30;73.10
27492;DHT22;14927;51.210;6.838;2023-08-07T06:43:56;17.30;72.90
27492;DHT22;14927;51.210;6.838;2023-08-07T06:46:40;17.30;73.00
27492;DHT22;14927;51.210;6.838;2023-08-07T06:49:25;17.20;73.00
27492;DHT22;14927;51.210;6.838;2023-08-07T06:52:10;17.20;73.10
27492;DHT22;14927;51.210;6.838;2023-08-07T06:54:54;17.30;73.30
27492;DHT22;14927;51.210;6.838;2023-08-07T06:57:39;17.20;73.10
27492;DHT22;14927;51.210;6.838;2023-08-07T07:00:24;17.20;73.20
27492;DHT22;14927;51.210;6.838;2023-08-07T07:03:08;17.20;73.10
27492;DHT22;14927;51.210;6.838;2023-08-07T07:05:55;17.20;73.20
27492;DHT22;14927;51.210;6.838;2023-08-07T07:08:39;17.20;73.20
27492;DHT22;14927;51.210;6.838;2023-08-07T07:11:24;17.20;73.30
27492;DHT22;14927;51.210;6.838;2023-08-07T07:14:09;17.10;73.40
27492;DHT22;14927;51.210;6.838;2023-08-07T07:16:53;17.20;73.70
27492;DHT22;14927;51.210;6.838;2023-08-07T07:19:38;17.20;73.70
27492;DHT22;14927;51.210;6.838;2023-08-07T07:22:23;17.20;73.70
27492;DHT22;14927;51.210;6.838;2023-08-07T07:25:07;17.20;73.70
27492;DHT22;14927;51.210;6.838;2023-08-07T07:27:52;17.20;73.90
27492;DHT22;14927;51.210;6.838;2023-08-07T07:30:38;17.20;74.00
27492;DHT22;14927;51.210;6.838;2023-08-07T07:33:23;17.20;74.10
27492;DHT22;14927;51.210;6.838;2023-08-07T07:36:14;17.20;74.00
27492;DHT22;14927;51.210;6.838;2023-08-07T07:39:00;17.20;74.00
27492;DHT22;14927;51.210;6.838;2023-08-07T07:41:44;17.20;73.60
27492;DHT22;14927;51.210;6.838;2023-08-07T07:44:29;17.20;73.80
27492;DHT22;14927;51.210;6.838;2023-08-07T07:47:13;17.20;73.80
27492;DHT22;14927;51.210;6.838;2023-08-07T07:50:06;17.10;74.00
27492;DHT22;14927;51.210;6.838;2023-08-07T07:52:52;17.20;75.10
27492;DHT22;14927;51.210;6.838;2023-08-07T07:55:37;17.10;74.10
27492;DHT22;14927;51.210;6.838;2023-08-07T07:58:23;17.10;74.20
27492;DHT22;14927;51.210;6.838;2023-08-07T08:01:08;17.10;74.20
27492;DHT22;14927;51.210;6.838;2023-08-07T08:03:52;17.10;74.00
27492;DHT22;14927;51.210;6.838;2023-08-07T08:06:39;17.20;74.10
27492;DHT22;14927;51.210;6.838;2023-08-07T08:09:24;17.10;74.10
27492;DHT22;14927;51.210;6.838;2023-08-07T08:12:09;17.20;74.20
27492;DHT22;14927;51.210;6.838;2023-08-07T08:14:54;17.20;74.20
27492;DHT22;14927;51.210;6.838;2023-08-07T08:17:40;17.20;74.10
27492;DHT22;14927;51.210;6.838;2023-08-07T08:20:24;17.20;74.10
27492;DHT22;14927;51.210;6.838;2023-08-07T08:23:09;17.20;74.30
27492;DHT22;14927;51.210;6.838;2023-08-07T08:25:53;17.20;74.60
27492;DHT22;14927;51.210;6.838;2023-08-07T08:28:38;17.20;74.60
27492;DHT22;14927;51.210;6.838;2023-08-07T08:31:23;17.30;74.80
27492;DHT22;14927;51.210;6.838;2023-08-07T08:34:08;17.30;74.60
27492;DHT22;14927;51.210;6.838;2023-08-07T08:36:47;17.30;74.60
27492;DHT22;14927;51.210;6.838;2023-08-07T08:39:32;17.30;74.60
27492;DHT22;14927;51.210;6.838;2023-08-07T08:42:15;17.40;74.70
27492;DHT22;14927;51.210;6.838;2023-08-07T08:45:03;17.40;74.70
27492;DHT22;14927;51.210;6.838;2023-08-07T08:47:51;17.40;74.70
27492;DHT22;14927;51.210;6.838;2023-08-07T08:50:39;17.40;75.00
27492;DHT22;14927;51.210;6.838;2023-08-07T08:53:25;17.50;74.80
27492;DHT22;14927;51.210;6.838;2023-08-07T08:56:10;17.50;74.40
27492;DHT22;14927;51.210;6.838;2023-08-07T08:58:56;17.50;74.40
27492;DHT22;14927;51.210;6.838;2023-08-07T09:01:40;17.50;74.20
27492;DHT22;14927;51.210;6.838;2023-08-07T09:04:26;17.60;74.10
27492;DHT22;14927;51.210;6.838;2023-08-07T09:07:15;17.60;74.10
27492;DHT22;14927;51.210;6.838;2023-08-07T09:10:03;17.70;73.90
27492;DHT22;14927;51.210;6.838;2023-08-07T09:12:57;17.70;73.80
27492;DHT22;14927;51.210;6.838;2023-08-07T09:15:45;17.70;73.80
27492;DHT22;14927;51.210;6.838;2023-08-07T09:18:34;17.80;73.80
27492;DHT22;14927;51.210;6.838;2023-08-07T09:21:19;17.90;73.90
27492;DHT22;14927;51.210;6.838;2023-08-07T09:24:05;18.00;74.20
27492;DHT22;14927;51.210;6.838;2023-08-07T09:26:51;18.10;74.40
27492;DHT22;14927;51.210;6.838;2023-08-07T09:29:39;18.20;74.10
27492;DHT22;14927;51.210;6.838;2023-08-07T09:32:25;18.30;73.30
27492;DHT22;14927;51.210;6.838;2023-08-07T09:35:10;18.40;73.00
27492;DHT22;14927;51.210;6.838;2023-08-07T09:37:54;18.40;72.50
27492;DHT22;14927;51.210;6.838;2023-08-07T09:40:42;18.50;72.70
27492;DHT22;14927;51.210;6.838;2023-08-07T09:43:27;18.60;71.60
27492;DHT22;14927;51.210;6.838;2023-08-07T09:46:12;18.60;71.10
27492;DHT22;14927;51.210;6.838;2023-08-07T09:48:58;18.60;70.60
27492;DHT22;14927;51.210;6.838;2023-08-07T09:51:45;18.70;70.30
27492;DHT22;14927;51.210;6.838;2023-08-07T09:54:31;18.70;70.10
27492;DHT22;14927;51.210;6.838;2023-08-07T09:57:16;18.80;69.90
27492;DHT22;14927;51.210;6.838;2023-08-07T10:00:01;18.80;69.70
27492;DHT22;14927;51.210;6.838;2023-08-07T10:02:47;18.90;69.60
27492;DHT22;14927;51.210;6.838;2023-08-07T10:05:32;18.90;69.40
27492;DHT22;14927;51.210;6.838;2023-08-07T10:08:17;19.00;69.40
27492;DHT22;14927;51.210;6.838;2023-08-07T10:11:02;19.00;69.00
27492;DHT22;14927;51.210;6.838;2023-08-07T10:13:48;19.10;69.10
27492;DHT22;14927;51.210;6.838;2023-08-07T10:16:32;19.10;68.70
27492;DHT22;14927;51.210;6.838;2023-08-07T10:19:22;19.20;68.50
27492;DHT22;14927;51.210;6.838;2023-08-07T10:22:07;19.30;68.20
27492;DHT22;14927;51.210;6.838;2023-08-07T10:24:53;19.30;68.30
27492;DHT22;14927;51.210;6.838;2023-08-07T10:27:40;19.40;67.90
27492;DHT22;14927;51.210;6.838;2023-08-07T10:30:29;19.50;67.00
27492;DHT22;14927;51.210;6.838;2023-08-07T10:33:16;19.60;66.60
27492;DHT22;14927;51.210;6.838;2023-08-07T10:36:09;19.70;65.80
27492;DHT22;14927;51.210;6.838;2023-08-07T10:39:09;19.80;65.00
27492;DHT22;14927;51.210;6.838;2023-08-07T10:41:57;19.90;62.40
27492;DHT22;14927;51.210;6.838;2023-08-07T10:44:48;20.00;63.40
27492;DHT22;14927;51.210;6.838;2023-08-07T10:47:34;20.10;62.10
27492;DHT22;14927;51.210;6.838;2023-08-07T10:50:19;20.10;62.30
27492;DHT22;14927;51.210;6.838;2023-08-07T10:53:28;20.20;61.50
27492;DHT22;14927;51.210;6.838;2023-08-07T10:56:18;20.30;60.40
27492;DHT22;14927;51.210;6.838;2023-08-07T10:59:13;20.40;60.00
27492;DHT22;14927;51.210;6.838;2023-08-07T11:01:58;20.50;61.60
27492;DHT22;14927;51.210;6.838;2023-08-07T11:04:43;20.60;59.10
27492;DHT22;14927;51.210;6.838;2023-08-07T11:07:29;20.70;58.10
27492;DHT22;14927;51.210;6.838;2023-08-07T11:10:14;20.70;56.80
27492;DHT22;14927;51.210;6.838;2023-08-07T11:13:02;20.80;56.70
27492;DHT22;14927;51.210;6.838;2023-08-07T11:15:46;20.80;56.60
27492;DHT22;14927;51.210;6.838;2023-08-07T11:18:31;20.90;55.90
27492;DHT22;14927;51.210;6.838;2023-08-07T11:21:16;20.90;55.10
27492;DHT22;14927;51.210;6.838;2023-08-07T11:24:01;21.00;55.10
27492;DHT22;14927;51.210;6.838;2023-08-07T11:26:46;21.10;54.30
27492;DHT22;14927;51.210;6.838;2023-08-07T11:29:33;21.10;53.90
27492;DHT22;14927;51.210;6.838;2023-08-07T11:32:20;21.20;52.90
27492;DHT22;14927;51.210;6.838;2023-08-07T11:35:06;21.30;53.20
27492;DHT22;14927;51.210;6.838;2023-08-07T11:37:51;21.40;52.60
27492;DHT22;14927;51.210;6.838;2023-08-07T11:40:38;21.50;51.50
27492;DHT22;14927;51.210;6.838;2023-08-07T11:43:22;21.60;50.70
27492;DHT22;14927;51.210;6.838;2023-08-07T11:46:09;21.70;50.30
27492;DHT22;14927;51.210;6.838;2023-08-07T11:48:58;21.80;50.00
27492;DHT22;14927;51.210;6.838;2023-08-07T11:51:43;21.90;50.00
27492;DHT22;14927;51.210;6.838;2023-08-07T11:54:28;22.00;49.60
27492;DHT22;14927;51.210;6.838;2023-08-07T11:57:17;22.10;49.20
27492;DHT22;14927;51.210;6.838;2023-08-07T12:00:02;22.20;48.90
27492;DHT22;14927;51.210;6.838;2023-08-07T12:02:47;22.30;49.10
27492;DHT22;14927;51.210;6.838;2023-08-07T12:05:40;22.30;48.60
27492;DHT22;14927;51.210;6.838;2023-08-07T12:08:41;22.40;47.30
27492;DHT22;14927;51.210;6.838;2023-08-07T12:11:25;22.40;47.00
27492;DHT22;14927;51.210;6.838;2023-08-07T12:14:13;22.50;47.10
27492;DHT22;14927;51.210;6.838;2023-08-07T12:17:03;22.50;47.00
27492;DHT22;14927;51.210;6.838;2023-08-07T12:19:50;22.50;49.20
27492;DHT22;14927;51.210;6.838;2023-08-07T12:22:35;22.60;47.00
27492;DHT22;14927;51.210;6.838;2023-08-07T12:25:20;22.60;46.70
27492;DHT22;14927;51.210;6.838;2023-08-07T12:28:05;22.70;47.40
27492;DHT22;14927;51.210;6.838;2023-08-07T12:30:50;22.70;47.30
27492;DHT22;14927;51.210;6.838;2023-08-07T12:33:36;22.80;46.30
27492;DHT22;14927;51.210;6.838;2023-08-07T12:36:20;22.90;46.20
27492;DHT22;14927;51.210;6.838;2023-08-07T12:39:05;23.10;46.30
27492;DHT22;14927;51.210;6.838;2023-08-07T12:41:50;23.20;46.10
27492;DHT22;14927;51.210;6.838;2023-08-07T12:44:35;23.40;45.70
27492;DHT22;14927;51.210;6.838;2023-08-07T12:47:20;23.50;45.40
27492;DHT22;14927;51.210;6.838;2023-08-07T12:50:04;23.70;44.70
27492;DHT22;14927;51.210;6.838;2023-08-07T12:52:50;23.80;45.00
27492;DHT22;14927;51.210;6.838;2023-08-07T12:55:35;23.90;44.60
27492;DHT22;14927;51.210;6.838;2023-08-07T12:58:19;24.00;43.70
27492;DHT22;14927;51.210;6.838;2023-08-07T13:01:09;24.20;43.10
27492;DHT22;14927;51.210;6.838;2023-08-07T13:03:54;24.30;42.80
27492;DHT22;14927;51.210;6.838;2023-08-07T13:06:38;24.40;41.60
27492;DHT22;14927;51.210;6.838;2023-08-07T13:09:23;24.50;41.70
27492;DHT22;14927;51.210;6.838;2023-08-07T13:12:08;24.40;40.30
27492;DHT22;14927;51.210;6.838;2023-08-07T13:14:53;24.60;40.40
27492;DHT22;14927;51.210;6.838;2023-08-07T13:17:38;24.70;40.10
27492;DHT22;14927;51.210;6.838;2023-08-07T13:20:23;24.80;39.60
27492;DHT22;14927;51.210;6.838;2023-08-07T13:23:10;24.90;39.90
27492;DHT22;14927;51.210;6.838;2023-08-07T13:25:55;25.00;39.50
27492;DHT22;14927;51.210;6.838;2023-08-07T13:28:41;25.20;39.40
27492;DHT22;14927;51.210;6.838;2023-08-07T13:31:26;25.30;38.70
27492;DHT22;14927;51.210;6.838;2023-08-07T13:34:10;25.40;39.20
27492;DHT22;14927;51.210;6.838;2023-08-07T13:36:55;25.70;39.30
27492;DHT22;14927;51.210;6.838;2023-08-07T13:39:40;25.80;38.60
27492;DHT22;14927;51.210;6.838;2023-08-07T13:42:25;26.10;37.50
27492;DHT22;14927;51.210;6.838;2023-08-07T13:45:12;26.40;37.40
27492;DHT22;14927;51.210;6.838;2023-08-07T13:47:58;26.70;37.10
27492;DHT22;14927;51.210;6.838;2023-08-07T13:50:42;26.90;36.00
27492;DHT22;14927;51.210;6.838;2023-08-07T13:53:27;27.10;34.90
27492;DHT22;14927;51.210;6.838;2023-08-07T13:56:13;27.30;34.30
27492;DHT22;14927;51.210;6.838;2023-08-07T13:58:57;27.50;34.40
27492;DHT22;14927;51.210;6.838;2023-08-07T14:01:42;27.70;35.50
27492;DHT22;14927;51.210;6.838;2023-08-07T14:04:27;27.80;34.10
27492;DHT22;14927;51.210;6.838;2023-08-07T14:07:11;28.00;33.30
27492;DHT22;14927;51.210;6.838;2023-08-07T14:09:56;28.10;33.30
27492;DHT22;14927;51.210;6.838;2023-08-07T14:12:41;28.20;32.60
27492;DHT22;14927;51.210;6.838;2023-08-07T14:15:26;28.20;31.80
27492;DHT22;14927;51.210;6.838;2023-08-07T14:18:12;28.20;31.80
27492;DHT22;14927;51.210;6.838;2023-08-07T14:20:59;28.10;31.50
27492;DHT22;14927;51.210;6.838;2023-08-07T14:23:44;28.00;31.70
27492;DHT22;14927;51.210;6.838;2023-08-07T14:26:29;27.90;31.90
27492;DHT22;14927;51.210;6.838;2023-08-07T14:29:14;27.80;31.80
27492;DHT22;14927;51.210;6.838;2023-08-07T14:31:58;27.70;32.00
27492;DHT22;14927;51.210;6.838;2023-08-07T14:34:43;27.50;32.40
27492;DHT22;14927;51.210;6.838;2023-08-07T14:37:28;27.40;32.70
27492;DHT22;14927;51.210;6.838;2023-08-07T14:40:13;27.20;33.40
27492;DHT22;14927;51.210;6.838;2023-08-07T14:42:58;27.00;33.50
27492;DHT22;14927;51.210;6.838;2023-08-07T14:45:43;26.90;33.90
27492;DHT22;14927;51.210;6.838;2023-08-07T14:48:27;26.70;34.60
27492;DHT22;14927;51.210;6.838;2023-08-07T14:51:13;26.70;35.50
27492;DHT22;14927;51.210;6.838;2023-08-07T14:53:59;26.50;35.70
27492;DHT22;14927;51.210;6.838;2023-08-07T14:56:43;26.40;36.00
27492;DHT22;14927;51.210;6.838;2023-08-07T14:59:28;26.30;36.00
27492;DHT22;14927;51.210;6.838;2023-08-07T15:02:13;26.20;36.50
27492;DHT22;14927;51.210;6.838;2023-08-07T15:04:58;26.00;37.00
27492;DHT22;14927;51.210;6.838;2023-08-07T15:07:43;25.90;37.30
27492;DHT22;14927;51.210;6.838;2023-08-07T15:10:28;25.80;37.80
27492;DHT22;14927;51.210;6.838;2023-08-07T15:13:13;25.70;38.00
27492;DHT22;14927;51.210;6.838;2023-08-07T15:15:58;25.60;37.90
27492;DHT22;14927;51.210;6.838;2023-08-07T15:18:43;25.50;38.50
27492;DHT22;14927;51.210;6.838;2023-08-07T15:21:28;25.40;38.20
27492;DHT22;14927;51.210;6.838;2023-08-07T15:24:14;25.30;38.40
27492;DHT22;14927;51.210;6.838;2023-08-07T15:26:59;25.30;38.70
27492;DHT22;14927;51.210;6.838;2023-08-07T15:29:45;25.20;38.80
27492;DHT22;14927;51.210;6.838;2023-08-07T15:32:30;25.20;38.90
27492;DHT22;14927;51.210;6.838;2023-08-07T15:35:15;25.00;39.20
27492;DHT22;14927;51.210;6.838;2023-08-07T15:38:00;25.00;39.80
27492;DHT22;14927;51.210;6.838;2023-08-07T15:40:45;24.90;39.90
27492;DHT22;14927;51.210;6.838;2023-08-07T15:43:30;24.90;41.10
27492;DHT22;14927;51.210;6.838;2023-08-07T15:46:15;24.80;42.20
27492;DHT22;14927;51.210;6.838;2023-08-07T15:49:00;24.60;43.40
27492;DHT22;14927;51.210;6.838;2023-08-07T15:51:45;24.50;43.90
27492;DHT22;14927;51.210;6.838;2023-08-07T15:54:29;24.40;44.60
27492;DHT22;14927;51.210;6.838;2023-08-07T15:57:14;24.20;44.60
27492;DHT22;14927;51.210;6.838;2023-08-07T15:59:59;24.20;44.90
27492;DHT22;14927;51.210;6.838;2023-08-07T16:02:44;24.20;44.80
27492;DHT22;14927;51.210;6.838;2023-08-07T16:05:28;24.00;45.20
27492;DHT22;14927;51.210;6.838;2023-08-07T16:08:13;24.00;45.10
27492;DHT22;14927;51.210;6.838;2023-08-07T16:10:58;24.00;45.10
27492;DHT22;14927;51.210;6.838;2023-08-07T16:13:43;23.90;45.00
27492;DHT22;14927;51.210;6.838;2023-08-07T16:16:28;23.90;45.10
27492;DHT22;14927;51.210;6.838;2023-08-07T16:19:12;23.90;45.00
27492;DHT22;14927;51.210;6.838;2023-08-07T16:21:57;23.90;45.00
27492;DHT22;14927;51.210;6.838;2023-08-07T16:24:42;23.90;44.80
27492;DHT22;14927;51.210;6.838;2023-08-07T16:27:26;23.80;44.90
27492;DHT22;14927;51.210;6.838;2023-08-07T16:30:11;23.80;44.80
27492;DHT22;14927;51.210;6.838;2023-08-07T16:32:56;23.80;44.80
27492;DHT22;14927;51.210;6.838;2023-08-07T16:35:41;23.80;44.80
27492;DHT22;14927;51.210;6.838;2023-08-07T16:38:25;23.90;44.50
27492;DHT22;14927;51.210;6.838;2023-08-07T16:41:10;23.90;44.50
27492;DHT22;14927;51.210;6.838;2023-08-07T16:43:55;23.90;44.60
27492;DHT22;14927;51.210;6.838;2023-08-07T16:46:39;24.00;44.60
27492;DHT22;14927;51.210;6.838;2023-08-07T16:49:24;24.00;44.60
27492;DHT22;14927;51.210;6.838;2023-08-07T16:52:09;24.00;44.50
27492;DHT22;14927;51.210;6.838;2023-08-07T16:54:54;24.00;44.50
27492;DHT22;14927;51.210;6.838;2023-08-07T16:57:40;24.10;44.60
27492;DHT22;14927;51.210;6.838;2023-08-07T17:00:25;24.10;44.40
27492;DHT22;14927;51.210;6.838;2023-08-07T17:03:09;24.10;44.50
27492;DHT22;14927;51.210;6.838;2023-08-07T17:05:54;24.20;44.00
27492;DHT22;14927;51.210;6.838;2023-08-07T17:08:40;24.20;43.90
27492;DHT22;14927;51.210;6.838;2023-08-07T17:11:25;24.20;43.90
27492;DHT22;14927;51.210;6.838;2023-08-07T17:14:12;24.20;43.90
27492;DHT22;14927;51.210;6.838;2023-08-07T17:16:57;24.20;44.00
27492;DHT22;14927;51.210;6.838;2023-08-07T17:19:41;24.20;43.90
27492;DHT22;14927;51.210;6.838;2023-08-07T17:22:26;24.20;43.60
27492;DHT22;14927;51.210;6.838;2023-08-07T17:25:11;24.20;43.90
27492;DHT22;14927;51.210;6.838;2023-08-07T17:27:56;24.20;43.70
27492;DHT22;14927;51.210;6.838;2023-08-07T17:30:41;24.20;43.70